AAL1014 KPVD-KPIT
Flight info
| Callsign | AAL1014 |
|---|---|
| Flight time | 1h 27m |
| Altitude | 40000 |
| Route | PUT CTR HNK KONJE SLT HAYNZ7 |
| Aircraft | B77L/H-SDE1E2E3FGHIJ2J3J4J5M1RWXY/LB1D1 |
Departure
| Time | 2026-05-06 23:08 |
|---|---|
| Airport | Rhode Island T. F. Green International Airport (KPVD) |
Arrival
| Time | 2026-05-07 00:36 |
|---|---|
| Airport | Pittsburgh International Airport (KPIT) |
| Time | Latitude | Longitude | Altitude | Speed | Heading |
|---|---|---|---|---|---|
| 2026-05-06 22:42 | 41.73125 | -71.42612 | 73 ft | 0 kts | 179° |
| 2026-05-06 22:57 | 41.73127 | -71.42612 | 73 ft | 1 kts | 179° |
| 2026-05-06 22:58 | 41.73136 | -71.42612 | 73 ft | 1 kts | 179° |
| 2026-05-06 22:58 | 41.73151 | -71.42615 | 73 ft | 2 kts | 158° |
| 2026-05-06 22:58 | 41.73163 | -71.42625 | 73 ft | 2 kts | 134° |
| 2026-05-06 22:58 | 41.73172 | -71.42641 | 74 ft | 2 kts | 115° |
| 2026-05-06 22:59 | 41.73176 | -71.42660 | 74 ft | 2 kts | 94° |
| 2026-05-06 22:59 | 41.73177 | -71.42669 | 74 ft | 1 kts | 86° |
| 2026-05-06 22:59 | 41.73176 | -71.42672 | 74 ft | 0 kts | 87° |
| 2026-05-06 23:03 | 41.73177 | -71.42671 | 74 ft | 0 kts | 87° |
| 2026-05-06 23:03 | 41.73180 | -71.42593 | 73 ft | 16 kts | 88° |
| 2026-05-06 23:03 | 41.73175 | -71.42417 | 71 ft | 19 kts | 107° |
| 2026-05-06 23:03 | 41.73145 | -71.42342 | 70 ft | 0 kts | 122° |
| 2026-05-06 23:04 | 41.73144 | -71.42339 | 70 ft | 1 kts | 123° |
| 2026-05-06 23:04 | 41.73116 | -71.42279 | 70 ft | 17 kts | 122° |
| 2026-05-06 23:04 | 41.73047 | -71.42136 | 69 ft | 9 kts | 137° |
| 2026-05-06 23:05 | 41.73030 | -71.42131 | 69 ft | 0 kts | 191° |
| 2026-05-06 23:05 | 41.73024 | -71.42133 | 69 ft | 1 kts | 191° |
| 2026-05-06 23:05 | 41.73021 | -71.42134 | 69 ft | 0 kts | 204° |
| 2026-05-06 23:07 | 41.73017 | -71.42136 | 69 ft | 0 kts | 205° |
| 2026-05-06 23:07 | 41.72973 | -71.42167 | 69 ft | 27 kts | 210° |
| 2026-05-06 23:07 | 41.72612 | -71.42466 | 71 ft | 92 kts | 212° |
| 2026-05-06 23:07 | 41.71913 | -71.43056 | 78 ft | 143 kts | 213° |
| 2026-05-06 23:08 | 41.71041 | -71.43819 | 389 ft | 155 kts | 218° |
| 2026-05-06 23:08 | 41.70203 | -71.44796 | 996 ft | 161 kts | 218° |
| 2026-05-06 23:08 | 41.69406 | -71.45589 | 1926 ft | 138 kts | 217° |
| 2026-05-06 23:08 | 41.68562 | -71.46398 | 2005 ft | 160 kts | 217° |
| 2026-05-06 23:09 | 41.67593 | -71.47337 | 2084 ft | 185 kts | 217° |
| 2026-05-06 23:09 | 41.66487 | -71.48399 | 2204 ft | 209 kts | 217° |
| 2026-05-06 23:09 | 41.65257 | -71.49565 | 2627 ft | 220 kts | 217° |
| 2026-05-06 23:09 | 41.64085 | -71.50856 | 3253 ft | 222 kts | 228° |
| 2026-05-06 23:10 | 41.63213 | -71.52560 | 3842 ft | 227 kts | 249° |
| 2026-05-06 23:10 | 41.63129 | -71.54678 | 4470 ft | 239 kts | 278° |
| 2026-05-06 23:10 | 41.63905 | -71.56666 | 5038 ft | 258 kts | 305° |
| 2026-05-06 23:10 | 41.65399 | -71.58130 | 5633 ft | 273 kts | 323° |
| 2026-05-06 23:11 | 41.67081 | -71.59336 | 6301 ft | 275 kts | 324° |
| 2026-05-06 23:11 | 41.68753 | -71.60516 | 6894 ft | 277 kts | 324° |
| 2026-05-06 23:11 | 41.70496 | -71.61646 | 7466 ft | 281 kts | 327° |
| 2026-05-06 23:11 | 41.72278 | -71.62769 | 8029 ft | 283 kts | 327° |
| 2026-05-06 23:12 | 41.74062 | -71.63883 | 8604 ft | 284 kts | 327° |
| 2026-05-06 23:12 | 41.75850 | -71.65002 | 9112 ft | 286 kts | 327° |
| 2026-05-06 23:12 | 41.77651 | -71.66123 | 9691 ft | 285 kts | 326° |
| 2026-05-06 23:12 | 41.79450 | -71.67226 | 10135 ft | 290 kts | 326° |
| 2026-05-06 23:13 | 41.81343 | -71.68399 | 10290 ft | 307 kts | 326° |
| 2026-05-06 23:13 | 41.83324 | -71.69658 | 10453 ft | 324 kts | 326° |
| 2026-05-06 23:13 | 41.85390 | -71.70988 | 10669 ft | 339 kts | 326° |
| 2026-05-06 23:13 | 41.87579 | -71.72413 | 10838 ft | 357 kts | 326° |
| 2026-05-06 23:14 | 41.89760 | -71.74043 | 11051 ft | 364 kts | 317° |
| 2026-05-06 23:14 | 41.91585 | -71.76378 | 11405 ft | 365 kts | 302° |
| 2026-05-06 23:14 | 41.93034 | -71.79175 | 12093 ft | 363 kts | 297° |
| 2026-05-06 23:14 | 41.94413 | -71.81980 | 12988 ft | 361 kts | 297° |
| 2026-05-06 23:15 | 41.95669 | -71.84816 | 13729 ft | 357 kts | 289° |
| 2026-05-06 23:15 | 41.96654 | -71.87891 | 14407 ft | 361 kts | 286° |
| 2026-05-06 23:15 | 41.97604 | -71.90991 | 15234 ft | 364 kts | 286° |
| 2026-05-06 23:15 | 41.98574 | -71.94160 | 16045 ft | 367 kts | 287° |
| 2026-05-06 23:16 | 41.99551 | -71.97341 | 16774 ft | 373 kts | 287° |
| 2026-05-06 23:16 | 42.00538 | -72.00548 | 17440 ft | 381 kts | 287° |
| 2026-05-06 23:16 | 42.01560 | -72.03869 | 18194 ft | 386 kts | 287° |
| 2026-05-06 23:16 | 42.02577 | -72.07173 | 19084 ft | 387 kts | 287° |
| 2026-05-06 23:17 | 42.03608 | -72.10527 | 19941 ft | 389 kts | 287° |
| 2026-05-06 23:17 | 42.04629 | -72.13853 | 20751 ft | 391 kts | 287° |
| 2026-05-06 23:17 | 42.05661 | -72.17218 | 21553 ft | 393 kts | 287° |
| 2026-05-06 23:17 | 42.06705 | -72.20626 | 22376 ft | 395 kts | 287° |
| 2026-05-06 23:18 | 42.07746 | -72.24028 | 23129 ft | 397 kts | 287° |
| 2026-05-06 23:18 | 42.08789 | -72.27445 | 23883 ft | 400 kts | 287° |
| 2026-05-06 23:18 | 42.09846 | -72.30907 | 24640 ft | 402 kts | 288° |
| 2026-05-06 23:18 | 42.10909 | -72.34394 | 25440 ft | 402 kts | 287° |
| 2026-05-06 23:19 | 42.11954 | -72.37828 | 26200 ft | 402 kts | 287° |
| 2026-05-06 23:19 | 42.13011 | -72.41309 | 26877 ft | 404 kts | 287° |
| 2026-05-06 23:19 | 42.14082 | -72.44837 | 27497 ft | 406 kts | 287° |
| 2026-05-06 23:19 | 42.15145 | -72.48344 | 28131 ft | 407 kts | 287° |
| 2026-05-06 23:20 | 42.16207 | -72.51853 | 28825 ft | 407 kts | 287° |
| 2026-05-06 23:20 | 42.17267 | -72.55358 | 29441 ft | 407 kts | 286° |
| 2026-05-06 23:20 | 42.18323 | -72.58855 | 30180 ft | 404 kts | 287° |
| 2026-05-06 23:20 | 42.19362 | -72.62296 | 31115 ft | 397 kts | 286° |
| 2026-05-06 23:21 | 42.20403 | -72.65749 | 31972 ft | 391 kts | 285° |
| 2026-05-06 23:21 | 42.21411 | -72.69099 | 32817 ft | 384 kts | 286° |
| 2026-05-06 23:21 | 42.22414 | -72.72441 | 33581 ft | 379 kts | 285° |
| 2026-05-06 23:21 | 42.23396 | -72.75716 | 34296 ft | 376 kts | 285° |
| 2026-05-06 23:22 | 42.24364 | -72.78949 | 34921 ft | 373 kts | 286° |
| 2026-05-06 23:22 | 42.25334 | -72.82194 | 35245 ft | 372 kts | 285° |
| 2026-05-06 23:22 | 42.26308 | -72.85458 | 35626 ft | 373 kts | 286° |
| 2026-05-06 23:22 | 42.27263 | -72.88688 | 35988 ft | 374 kts | 284° |
| 2026-05-06 23:23 | 42.28019 | -72.92027 | 36363 ft | 372 kts | 279° |
| 2026-05-06 23:23 | 42.28464 | -72.95406 | 36843 ft | 368 kts | 274° |
| 2026-05-06 23:23 | 42.28606 | -72.98820 | 37381 ft | 364 kts | 269° |
| 2026-05-06 23:23 | 42.28454 | -73.02221 | 37872 ft | 362 kts | 264° |
| 2026-05-06 23:24 | 42.28182 | -73.05570 | 38207 ft | 362 kts | 264° |
| 2026-05-06 23:24 | 42.27901 | -73.08968 | 38474 ft | 364 kts | 264° |
| 2026-05-06 23:24 | 42.27615 | -73.12344 | 38791 ft | 364 kts | 264° |
| 2026-05-06 23:24 | 42.27325 | -73.15703 | 39113 ft | 363 kts | 264° |
| 2026-05-06 23:25 | 42.27029 | -73.19099 | 39384 ft | 362 kts | 264° |
| 2026-05-06 23:25 | 42.26736 | -73.22443 | 39516 ft | 365 kts | 264° |
| 2026-05-06 23:25 | 42.26435 | -73.25856 | 39623 ft | 367 kts | 264° |
| 2026-05-06 23:25 | 42.26129 | -73.29301 | 39771 ft | 368 kts | 264° |
| 2026-05-06 23:26 | 42.25828 | -73.32682 | 39764 ft | 368 kts | 264° |
| 2026-05-06 23:26 | 42.25219 | -73.39491 | 39784 ft | 366 kts | 264° |
| 2026-05-06 23:27 | 42.24604 | -73.46316 | 39771 ft | 367 kts | 264° |
| 2026-05-06 23:27 | 42.23986 | -73.53124 | 39792 ft | 365 kts | 264° |
| 2026-05-06 23:28 | 42.23366 | -73.59919 | 39791 ft | 367 kts | 264° |
| 2026-05-06 23:28 | 42.22744 | -73.66680 | 39797 ft | 363 kts | 264° |
| 2026-05-06 23:29 | 42.22116 | -73.73466 | 39812 ft | 367 kts | 264° |
| 2026-05-06 23:29 | 42.21487 | -73.80223 | 39807 ft | 364 kts | 263° |
| 2026-05-06 23:30 | 42.20855 | -73.86964 | 39807 ft | 363 kts | 264° |
| 2026-05-06 23:30 | 42.20217 | -73.93720 | 39798 ft | 363 kts | 264° |
| 2026-05-06 23:31 | 42.19582 | -74.00401 | 39792 ft | 361 kts | 264° |
| 2026-05-06 23:31 | 42.18941 | -74.07108 | 39783 ft | 363 kts | 263° |
| 2026-05-06 23:32 | 42.18294 | -74.13834 | 39797 ft | 362 kts | 264° |
| 2026-05-06 23:32 | 42.17649 | -74.20507 | 39808 ft | 361 kts | 263° |
| 2026-05-06 23:33 | 42.16992 | -74.27251 | 39792 ft | 363 kts | 264° |
| 2026-05-06 23:33 | 42.16336 | -74.33951 | 39794 ft | 362 kts | 263° |
| 2026-05-06 23:34 | 42.15675 | -74.40649 | 39797 ft | 362 kts | 263° |
| 2026-05-06 23:34 | 42.15014 | -74.47318 | 39794 ft | 358 kts | 263° |
| 2026-05-06 23:35 | 42.14353 | -74.53944 | 39824 ft | 362 kts | 264° |
| 2026-05-06 23:35 | 42.13684 | -74.60605 | 39802 ft | 358 kts | 263° |
| 2026-05-06 23:36 | 42.13013 | -74.67252 | 39822 ft | 361 kts | 263° |
| 2026-05-06 23:36 | 42.12336 | -74.73909 | 39812 ft | 358 kts | 263° |
| 2026-05-06 23:37 | 42.11656 | -74.80572 | 39814 ft | 360 kts | 262° |
| 2026-05-06 23:37 | 42.10975 | -74.87192 | 39829 ft | 357 kts | 263° |
| 2026-05-06 23:38 | 42.10293 | -74.93793 | 39838 ft | 360 kts | 263° |
| 2026-05-06 23:38 | 42.09600 | -75.00457 | 39812 ft | 357 kts | 263° |
| 2026-05-06 23:39 | 42.08908 | -75.07075 | 39837 ft | 358 kts | 263° |
| 2026-05-06 23:39 | 42.08217 | -75.13641 | 39821 ft | 356 kts | 263° |
| 2026-05-06 23:40 | 42.07516 | -75.20277 | 39840 ft | 360 kts | 263° |
| 2026-05-06 23:40 | 42.06812 | -75.26884 | 39834 ft | 355 kts | 263° |
| 2026-05-06 23:41 | 42.06101 | -75.33422 | 39822 ft | 356 kts | 262° |
| 2026-05-06 23:41 | 42.05252 | -75.39999 | 39824 ft | 357 kts | 262° |
| 2026-05-06 23:42 | 42.04411 | -75.46506 | 39836 ft | 357 kts | 261° |
| 2026-05-06 23:42 | 42.03560 | -75.53104 | 39840 ft | 356 kts | 261° |
| 2026-05-06 23:43 | 42.02721 | -75.59600 | 39859 ft | 355 kts | 261° |
| 2026-05-06 23:43 | 42.01872 | -75.66141 | 39856 ft | 356 kts | 262° |
| 2026-05-06 23:44 | 42.01022 | -75.72652 | 39904 ft | 357 kts | 261° |
| 2026-05-06 23:44 | 42.00162 | -75.79225 | 39871 ft | 356 kts | 261° |
| 2026-05-06 23:45 | 41.99302 | -75.85758 | 39878 ft | 355 kts | 261° |
| 2026-05-06 23:45 | 41.98445 | -75.92245 | 39899 ft | 356 kts | 261° |
| 2026-05-06 23:45 | 41.98014 | -75.95489 | 39886 ft | 342 kts | 261° |
| 2026-05-06 23:46 | 41.97606 | -75.98555 | 39857 ft | 327 kts | 262° |
| 2026-05-06 23:46 | 41.97215 | -76.01479 | 39834 ft | 311 kts | 262° |
| 2026-05-06 23:46 | 41.96842 | -76.04273 | 39713 ft | 298 kts | 262° |
| 2026-05-06 23:46 | 41.96485 | -76.06951 | 39407 ft | 291 kts | 261° |
| 2026-05-06 23:47 | 41.96132 | -76.09588 | 38912 ft | 287 kts | 261° |
| 2026-05-06 23:47 | 41.95782 | -76.12195 | 38313 ft | 284 kts | 262° |
| 2026-05-06 23:47 | 41.95437 | -76.14769 | 37720 ft | 281 kts | 262° |
| 2026-05-06 23:47 | 41.95089 | -76.17351 | 37396 ft | 277 kts | 262° |
| 2026-05-06 23:48 | 41.94753 | -76.19838 | 36790 ft | 271 kts | 262° |
| 2026-05-06 23:48 | 41.94419 | -76.22313 | 36237 ft | 269 kts | 262° |
| 2026-05-06 23:48 | 41.94090 | -76.24745 | 35718 ft | 266 kts | 261° |
| 2026-05-06 23:48 | 41.93761 | -76.27172 | 35209 ft | 266 kts | 262° |
| 2026-05-06 23:49 | 41.93427 | -76.29634 | 34642 ft | 268 kts | 261° |
| 2026-05-06 23:49 | 41.93093 | -76.32084 | 34082 ft | 269 kts | 261° |
| 2026-05-06 23:49 | 41.92759 | -76.34540 | 33551 ft | 269 kts | 261° |
| 2026-05-06 23:49 | 41.92427 | -76.36968 | 33009 ft | 269 kts | 262° |
| 2026-05-06 23:50 | 41.92089 | -76.39445 | 32402 ft | 271 kts | 261° |
| 2026-05-06 23:50 | 41.91403 | -76.44451 | 31084 ft | 278 kts | 260° |
| 2026-05-06 23:50 | 41.91051 | -76.47008 | 30438 ft | 280 kts | 260° |
| 2026-05-06 23:51 | 41.90698 | -76.49574 | 29817 ft | 282 kts | 261° |
| 2026-05-06 23:51 | 41.90343 | -76.52151 | 29202 ft | 284 kts | 260° |
| 2026-05-06 23:51 | 41.89982 | -76.54759 | 28493 ft | 288 kts | 261° |
| 2026-05-06 23:51 | 41.89619 | -76.57381 | 27716 ft | 295 kts | 259° |
| 2026-05-06 23:52 | 41.89240 | -76.60123 | 26874 ft | 303 kts | 259° |
| 2026-05-06 23:52 | 41.88851 | -76.62917 | 26070 ft | 309 kts | 261° |
| 2026-05-06 23:52 | 41.88456 | -76.65755 | 25320 ft | 315 kts | 259° |
| 2026-05-06 23:52 | 41.88052 | -76.68658 | 24662 ft | 318 kts | 259° |
| 2026-05-06 23:53 | 41.87648 | -76.71550 | 24131 ft | 319 kts | 259° |
| 2026-05-06 23:53 | 41.87247 | -76.74413 | 23908 ft | 313 kts | 260° |
| 2026-05-06 23:53 | 41.86836 | -76.77346 | 23891 ft | 327 kts | 259° |
| 2026-05-06 23:53 | 41.86417 | -76.80328 | 23876 ft | 327 kts | 259° |
| 2026-05-06 23:54 | 41.85995 | -76.83325 | 23892 ft | 323 kts | 259° |
| 2026-05-06 23:54 | 41.85576 | -76.86292 | 23877 ft | 324 kts | 259° |
| 2026-05-06 23:54 | 41.85158 | -76.89252 | 23882 ft | 324 kts | 259° |
| 2026-05-06 23:54 | 41.84743 | -76.92177 | 23863 ft | 322 kts | 259° |
| 2026-05-06 23:55 | 41.84327 | -76.95115 | 23874 ft | 322 kts | 259° |
| 2026-05-06 23:55 | 41.83905 | -76.98083 | 23878 ft | 327 kts | 259° |
| 2026-05-06 23:55 | 41.83479 | -77.01072 | 23870 ft | 326 kts | 259° |
| 2026-05-06 23:55 | 41.83054 | -77.04049 | 23867 ft | 321 kts | 259° |
| 2026-05-06 23:56 | 41.82639 | -77.06955 | 23876 ft | 319 kts | 259° |
| 2026-05-06 23:56 | 41.82167 | -77.09862 | 23887 ft | 323 kts | 256° |
| 2026-05-06 23:56 | 41.81401 | -77.12721 | 23868 ft | 325 kts | 248° |
| 2026-05-06 23:56 | 41.80461 | -77.15440 | 23867 ft | 323 kts | 248° |
| 2026-05-06 23:57 | 41.79503 | -77.18185 | 23879 ft | 325 kts | 248° |
| 2026-05-06 23:57 | 41.78550 | -77.20897 | 23874 ft | 325 kts | 248° |
| 2026-05-06 23:57 | 41.77576 | -77.23652 | 23873 ft | 323 kts | 248° |
| 2026-05-06 23:57 | 41.76626 | -77.26335 | 23869 ft | 321 kts | 248° |
| 2026-05-06 23:58 | 41.75663 | -77.29055 | 23893 ft | 325 kts | 248° |
| 2026-05-06 23:58 | 41.74703 | -77.31761 | 23877 ft | 324 kts | 248° |
| 2026-05-06 23:58 | 41.73743 | -77.34461 | 23887 ft | 323 kts | 249° |
| 2026-05-06 23:58 | 41.72776 | -77.37185 | 23877 ft | 324 kts | 248° |
| 2026-05-06 23:59 | 41.71818 | -77.39878 | 23876 ft | 322 kts | 248° |
| 2026-05-06 23:59 | 41.70858 | -77.42573 | 23876 ft | 322 kts | 248° |
| 2026-05-06 23:59 | 41.69885 | -77.45305 | 23882 ft | 321 kts | 248° |
| 2026-05-06 23:59 | 41.68929 | -77.47981 | 23875 ft | 319 kts | 248° |
| 2026-05-07 00:00 | 41.67982 | -77.50633 | 23882 ft | 317 kts | 248° |
| 2026-05-07 00:00 | 41.67027 | -77.53307 | 23884 ft | 321 kts | 248° |
| 2026-05-07 00:00 | 41.66058 | -77.56014 | 23879 ft | 320 kts | 248° |
| 2026-05-07 00:00 | 41.65435 | -77.57753 | 23872 ft | 317 kts | 249° |
| 2026-05-07 00:01 | 41.64162 | -77.61305 | 23877 ft | 320 kts | 249° |
| 2026-05-07 00:01 | 41.63195 | -77.63999 | 23861 ft | 319 kts | 249° |
| 2026-05-07 00:01 | 41.62240 | -77.66660 | 23880 ft | 319 kts | 248° |
| 2026-05-07 00:01 | 41.61277 | -77.69338 | 23888 ft | 318 kts | 248° |
| 2026-05-07 00:02 | 41.60319 | -77.72000 | 23889 ft | 317 kts | 248° |
| 2026-05-07 00:02 | 41.59367 | -77.74642 | 23891 ft | 315 kts | 248° |
| 2026-05-07 00:02 | 41.58419 | -77.77274 | 23893 ft | 318 kts | 248° |
| 2026-05-07 00:02 | 41.57461 | -77.79930 | 23894 ft | 317 kts | 248° |
| 2026-05-07 00:03 | 41.56506 | -77.82572 | 23892 ft | 315 kts | 248° |
| 2026-05-07 00:03 | 41.55564 | -77.85175 | 23888 ft | 314 kts | 249° |
| 2026-05-07 00:03 | 41.54614 | -77.87804 | 23901 ft | 315 kts | 248° |
| 2026-05-07 00:03 | 41.53659 | -77.90441 | 23887 ft | 318 kts | 248° |
| 2026-05-07 00:04 | 41.52692 | -77.93108 | 23895 ft | 316 kts | 248° |
| 2026-05-07 00:04 | 41.51747 | -77.95712 | 23898 ft | 315 kts | 248° |
| 2026-05-07 00:04 | 41.50800 | -77.98373 | 23885 ft | 314 kts | 250° |
| 2026-05-07 00:04 | 41.49975 | -78.01028 | 23879 ft | 311 kts | 251° |
| 2026-05-07 00:05 | 41.49156 | -78.03712 | 23893 ft | 315 kts | 251° |
| 2026-05-07 00:05 | 41.48327 | -78.06382 | 23890 ft | 314 kts | 250° |
| 2026-05-07 00:05 | 41.47484 | -78.09067 | 23887 ft | 311 kts | 250° |
| 2026-05-07 00:05 | 41.46652 | -78.11711 | 23887 ft | 313 kts | 250° |
| 2026-05-07 00:06 | 41.45805 | -78.14396 | 23904 ft | 314 kts | 251° |
| 2026-05-07 00:06 | 41.44966 | -78.17051 | 23892 ft | 314 kts | 251° |
| 2026-05-07 00:06 | 41.44123 | -78.19715 | 23884 ft | 312 kts | 251° |
| 2026-05-07 00:06 | 41.43282 | -78.22372 | 23892 ft | 309 kts | 251° |
| 2026-05-07 00:07 | 41.42446 | -78.25008 | 23887 ft | 307 kts | 251° |
| 2026-05-07 00:07 | 41.41613 | -78.27638 | 23902 ft | 311 kts | 251° |
| 2026-05-07 00:07 | 41.40780 | -78.30262 | 23891 ft | 311 kts | 250° |
| 2026-05-07 00:07 | 41.39937 | -78.32912 | 23904 ft | 308 kts | 251° |
| 2026-05-07 00:08 | 41.39100 | -78.35545 | 23893 ft | 311 kts | 250° |
| 2026-05-07 00:08 | 41.38261 | -78.38179 | 23898 ft | 312 kts | 251° |
| 2026-05-07 00:08 | 41.37415 | -78.40836 | 23883 ft | 311 kts | 250° |
| 2026-05-07 00:08 | 41.36577 | -78.43462 | 23887 ft | 307 kts | 250° |
| 2026-05-07 00:09 | 41.35744 | -78.46066 | 23882 ft | 307 kts | 251° |
| 2026-05-07 00:09 | 41.34912 | -78.48672 | 23891 ft | 307 kts | 251° |
| 2026-05-07 00:09 | 41.34076 | -78.51287 | 23887 ft | 310 kts | 250° |
| 2026-05-07 00:09 | 41.33236 | -78.53909 | 23879 ft | 308 kts | 250° |
| 2026-05-07 00:10 | 41.32394 | -78.56535 | 23893 ft | 306 kts | 250° |
| 2026-05-07 00:10 | 41.31562 | -78.59130 | 23886 ft | 308 kts | 250° |
| 2026-05-07 00:10 | 41.30718 | -78.61757 | 23878 ft | 308 kts | 251° |
| 2026-05-07 00:10 | 41.29888 | -78.64339 | 23893 ft | 305 kts | 250° |
| 2026-05-07 00:11 | 41.29053 | -78.66933 | 23911 ft | 305 kts | 250° |
| 2026-05-07 00:11 | 41.28217 | -78.69530 | 23916 ft | 307 kts | 250° |
| 2026-05-07 00:11 | 41.27374 | -78.72143 | 23912 ft | 305 kts | 250° |
| 2026-05-07 00:11 | 41.26548 | -78.74700 | 23909 ft | 301 kts | 250° |
| 2026-05-07 00:12 | 41.25727 | -78.77241 | 23361 ft | 303 kts | 250° |
| 2026-05-07 00:12 | 41.24884 | -78.79858 | 22543 ft | 310 kts | 250° |
| 2026-05-07 00:12 | 41.24050 | -78.82426 | 22462 ft | 297 kts | 250° |
| 2026-05-07 00:12 | 41.23258 | -78.84865 | 22448 ft | 282 kts | 250° |
| 2026-05-07 00:13 | 41.22475 | -78.87289 | 22404 ft | 295 kts | 250° |
| 2026-05-07 00:13 | 41.21653 | -78.89831 | 22153 ft | 305 kts | 250° |
| 2026-05-07 00:13 | 41.20824 | -78.92379 | 21815 ft | 303 kts | 250° |
| 2026-05-07 00:13 | 41.19986 | -78.94954 | 21462 ft | 301 kts | 250° |
| 2026-05-07 00:14 | 41.19156 | -78.97502 | 21112 ft | 300 kts | 250° |
| 2026-05-07 00:14 | 41.18337 | -79.00018 | 20770 ft | 299 kts | 249° |
| 2026-05-07 00:14 | 41.17518 | -79.02528 | 20430 ft | 300 kts | 250° |
| 2026-05-07 00:14 | 41.16690 | -79.05066 | 20082 ft | 300 kts | 250° |
| 2026-05-07 00:15 | 41.15864 | -79.07595 | 19736 ft | 300 kts | 250° |
| 2026-05-07 00:15 | 41.15027 | -79.10157 | 19374 ft | 302 kts | 249° |
| 2026-05-07 00:15 | 41.14193 | -79.12706 | 19010 ft | 302 kts | 250° |
| 2026-05-07 00:15 | 41.13358 | -79.15255 | 18670 ft | 301 kts | 249° |
| 2026-05-07 00:16 | 41.12533 | -79.17768 | 18301 ft | 300 kts | 250° |
| 2026-05-07 00:16 | 41.11698 | -79.20313 | 17950 ft | 301 kts | 250° |
| 2026-05-07 00:16 | 41.10867 | -79.22846 | 17601 ft | 302 kts | 250° |
| 2026-05-07 00:16 | 41.10031 | -79.25389 | 17229 ft | 300 kts | 249° |
| 2026-05-07 00:17 | 41.09206 | -79.27895 | 16883 ft | 297 kts | 249° |
| 2026-05-07 00:17 | 41.08380 | -79.30401 | 16529 ft | 296 kts | 249° |
| 2026-05-07 00:17 | 41.07569 | -79.32864 | 16187 ft | 296 kts | 249° |
| 2026-05-07 00:17 | 41.06744 | -79.35364 | 15834 ft | 295 kts | 248° |
| 2026-05-07 00:18 | 41.05926 | -79.37842 | 15471 ft | 293 kts | 249° |
| 2026-05-07 00:18 | 41.04899 | -79.40157 | 15107 ft | 295 kts | 234° |
| 2026-05-07 00:18 | 41.03327 | -79.41910 | 14725 ft | 302 kts | 217° |
| 2026-05-07 00:18 | 41.01411 | -79.43091 | 14265 ft | 306 kts | 211° |
| 2026-05-07 00:19 | 40.99429 | -79.44154 | 13720 ft | 309 kts | 210° |
| 2026-05-07 00:19 | 40.97451 | -79.45221 | 13246 ft | 308 kts | 210° |
| 2026-05-07 00:19 | 40.95466 | -79.46310 | 12842 ft | 305 kts | 210° |
| 2026-05-07 00:19 | 40.93525 | -79.47388 | 12400 ft | 304 kts | 211° |
| 2026-05-07 00:20 | 40.91592 | -79.48459 | 11958 ft | 302 kts | 210° |
| 2026-05-07 00:20 | 40.89652 | -79.49551 | 11507 ft | 301 kts | 211° |
| 2026-05-07 00:20 | 40.87729 | -79.50634 | 11134 ft | 298 kts | 210° |
| 2026-05-07 00:20 | 40.85840 | -79.51698 | 10968 ft | 291 kts | 210° |
| 2026-05-07 00:21 | 40.83960 | -79.52775 | 10955 ft | 300 kts | 211° |
| 2026-05-07 00:21 | 40.82042 | -79.53869 | 10946 ft | 298 kts | 211° |
| 2026-05-07 00:21 | 40.80193 | -79.54913 | 10801 ft | 282 kts | 211° |
| 2026-05-07 00:21 | 40.78439 | -79.55893 | 10586 ft | 265 kts | 211° |
| 2026-05-07 00:22 | 40.76780 | -79.56806 | 10295 ft | 254 kts | 210° |
| 2026-05-07 00:22 | 40.75157 | -79.57703 | 9681 ft | 256 kts | 210° |
| 2026-05-07 00:22 | 40.73517 | -79.58641 | 9293 ft | 257 kts | 211° |
| 2026-05-07 00:22 | 40.71885 | -79.59596 | 8942 ft | 257 kts | 211° |
| 2026-05-07 00:23 | 40.70252 | -79.60548 | 8588 ft | 257 kts | 210° |
| 2026-05-07 00:23 | 40.68613 | -79.61522 | 8198 ft | 259 kts | 211° |
| 2026-05-07 00:23 | 40.66984 | -79.62502 | 7849 ft | 259 kts | 211° |
| 2026-05-07 00:23 | 40.65342 | -79.63512 | 7457 ft | 261 kts | 211° |
| 2026-05-07 00:24 | 40.63702 | -79.64532 | 7112 ft | 260 kts | 211° |
| 2026-05-07 00:24 | 40.62087 | -79.65555 | 6770 ft | 260 kts | 210° |
| 2026-05-07 00:24 | 40.60439 | -79.66600 | 6450 ft | 260 kts | 210° |
| 2026-05-07 00:24 | 40.58807 | -79.67647 | 6078 ft | 261 kts | 210° |
| 2026-05-07 00:25 | 40.57199 | -79.68684 | 5969 ft | 256 kts | 210° |
| 2026-05-07 00:25 | 40.55571 | -79.69745 | 5964 ft | 263 kts | 210° |
| 2026-05-07 00:25 | 40.53952 | -79.70808 | 5962 ft | 262 kts | 210° |
| 2026-05-07 00:25 | 40.52308 | -79.71886 | 5959 ft | 262 kts | 210° |
| 2026-05-07 00:26 | 40.50708 | -79.72974 | 5959 ft | 261 kts | 217° |
| 2026-05-07 00:26 | 40.49367 | -79.74545 | 5743 ft | 255 kts | 229° |
| 2026-05-07 00:26 | 40.48159 | -79.76238 | 5329 ft | 258 kts | 230° |
| 2026-05-07 00:26 | 40.46953 | -79.77969 | 4967 ft | 259 kts | 230° |
| 2026-05-07 00:27 | 40.45731 | -79.79736 | 4602 ft | 260 kts | 230° |
| 2026-05-07 00:27 | 40.44519 | -79.81484 | 4248 ft | 261 kts | 230° |
| 2026-05-07 00:27 | 40.43300 | -79.83228 | 3909 ft | 262 kts | 230° |
| 2026-05-07 00:27 | 40.42072 | -79.84995 | 3572 ft | 262 kts | 230° |
| 2026-05-07 00:28 | 40.40836 | -79.86776 | 3227 ft | 263 kts | 230° |
| 2026-05-07 00:28 | 40.39645 | -79.88486 | 3129 ft | 249 kts | 231° |
| 2026-05-07 00:28 | 40.38510 | -79.90095 | 3004 ft | 234 kts | 230° |
| 2026-05-07 00:28 | 40.37439 | -79.91618 | 2985 ft | 223 kts | 231° |
| 2026-05-07 00:29 | 40.36438 | -79.93100 | 2976 ft | 205 kts | 241° |
| 2026-05-07 00:29 | 40.36086 | -79.94740 | 2960 ft | 178 kts | 276° |
| 2026-05-07 00:30 | 40.36489 | -79.99224 | 2962 ft | 154 kts | 281° |
| 2026-05-07 00:30 | 40.36621 | -80.00622 | 2966 ft | 156 kts | 281° |
| 2026-05-07 00:30 | 40.36753 | -80.02017 | 2964 ft | 154 kts | 281° |
| 2026-05-07 00:30 | 40.36883 | -80.03404 | 2967 ft | 153 kts | 281° |
| 2026-05-07 00:31 | 40.37019 | -80.04791 | 2960 ft | 154 kts | 281° |
| 2026-05-07 00:31 | 40.37165 | -80.06192 | 2966 ft | 153 kts | 286° |
| 2026-05-07 00:31 | 40.37511 | -80.07486 | 2955 ft | 150 kts | 307° |
| 2026-05-07 00:31 | 40.38244 | -80.08475 | 2971 ft | 152 kts | 319° |
| 2026-05-07 00:32 | 40.39027 | -80.09390 | 2971 ft | 149 kts | 318° |
| 2026-05-07 00:32 | 40.39772 | -80.10307 | 2967 ft | 142 kts | 317° |
| 2026-05-07 00:32 | 40.40448 | -80.11140 | 2961 ft | 127 kts | 318° |
| 2026-05-07 00:32 | 40.41092 | -80.11934 | 2967 ft | 130 kts | 318° |
| 2026-05-07 00:33 | 40.41754 | -80.12753 | 2887 ft | 133 kts | 318° |
| 2026-05-07 00:33 | 40.42421 | -80.13580 | 2715 ft | 131 kts | 317° |
| 2026-05-07 00:33 | 40.43076 | -80.14390 | 2553 ft | 130 kts | 317° |
| 2026-05-07 00:33 | 40.43735 | -80.15207 | 2382 ft | 130 kts | 317° |
| 2026-05-07 00:34 | 40.44394 | -80.16027 | 2182 ft | 130 kts | 316° |
| 2026-05-07 00:34 | 40.45058 | -80.16849 | 1978 ft | 129 kts | 317° |
| 2026-05-07 00:34 | 40.45713 | -80.17653 | 1793 ft | 131 kts | 316° |
| 2026-05-07 00:34 | 40.46376 | -80.18469 | 1632 ft | 130 kts | 316° |
| 2026-05-07 00:35 | 40.47028 | -80.19294 | 1499 ft | 132 kts | 316° |
| 2026-05-07 00:35 | 40.47691 | -80.20131 | 1325 ft | 130 kts | 317° |
| 2026-05-07 00:35 | 40.48346 | -80.20938 | 1221 ft | 124 kts | 317° |
| 2026-05-07 00:35 | 40.48871 | -80.21576 | 1219 ft | 81 kts | 316° |
| 2026-05-07 00:36 | 40.49173 | -80.21948 | 1219 ft | 41 kts | 316° |
| 2026-05-07 00:36 | 40.49370 | -80.22194 | 1219 ft | 36 kts | 316° |
| 2026-05-07 00:36 | 40.49517 | -80.22378 | 1219 ft | 18 kts | 316° |
| 2026-05-07 00:36 | 40.49581 | -80.22441 | 1219 ft | 9 kts | 352° |
| 2026-05-07 00:37 | 40.49645 | -80.22404 | 1219 ft | 10 kts | 21° |
| 2026-05-07 00:37 | 40.49665 | -80.22399 | 1219 ft | 0 kts | 2° |
| 2026-05-07 00:37 | 40.49681 | -80.22401 | 1219 ft | 0 kts | 348° |
| 2026-05-07 00:37 | 40.49685 | -80.22401 | 1219 ft | 5 kts | 342° |
| 2026-05-07 00:38 | 40.49733 | -80.22495 | 1219 ft | 15 kts | 298° |
| 2026-05-07 00:38 | 40.49787 | -80.22623 | 1219 ft | 16 kts | 299° |
| 2026-05-07 00:38 | 40.49844 | -80.22755 | 1219 ft | 16 kts | 300° |
| 2026-05-07 00:38 | 40.49902 | -80.22887 | 1219 ft | 16 kts | 300° |
| 2026-05-07 00:39 | 40.49954 | -80.23023 | 1219 ft | 16 kts | 286° |
| 2026-05-07 00:39 | 40.49961 | -80.23177 | 1219 ft | 17 kts | 272° |
| 2026-05-07 00:39 | 40.49964 | -80.23331 | 1219 ft | 17 kts | 262° |
| 2026-05-07 00:39 | 40.49934 | -80.23483 | 1219 ft | 17 kts | 257° |
| 2026-05-07 00:40 | 40.49920 | -80.23641 | 1219 ft | 17 kts | 271° |
| 2026-05-07 00:40 | 40.49924 | -80.23805 | 1219 ft | 17 kts | 266° |
| 2026-05-07 00:40 | 40.49905 | -80.23965 | 1219 ft | 18 kts | 269° |
| 2026-05-07 00:40 | 40.49886 | -80.24058 | 1219 ft | 0 kts | 231° |
| 2026-05-07 00:41 | 40.49881 | -80.24065 | 1219 ft | 2 kts | 225° |
| 2026-05-07 00:41 | 40.49865 | -80.24084 | 1219 ft | 0 kts | 225° |
| 2026-05-07 00:41 | 40.49858 | -80.24094 | 1219 ft | 2 kts | 226° |
| 2026-05-07 00:41 | 40.49852 | -80.24103 | 1219 ft | 0 kts | 227° |